sensor_id;sensor_type;location;lat;lon;timestamp;P1;durP1;ratioP1;P2;durP2;ratioP2
50165;SDS011;36071;48.140;11.516;2024-02-26T00:01:32;5.9;;;3.3;;
50165;SDS011;36071;48.140;11.516;2024-02-26T00:06:31;5.2;;;2.9;;
50165;SDS011;36071;48.140;11.516;2024-02-26T00:11:31;3.7;;;2.5;;
50165;SDS011;36071;48.140;11.516;2024-02-26T00:16:32;5.3;;;2.8;;
50165;SDS011;36071;48.140;11.516;2024-02-26T00:21:33;5.0;;;2.8;;
50165;SDS011;36071;48.140;11.516;2024-02-26T00:26:31;3.7;;;2.4;;
50165;SDS011;36071;48.140;11.516;2024-02-26T00:31:31;4.4;;;2.6;;
50165;SDS011;36071;48.140;11.516;2024-02-26T00:36:33;4.2;;;2.4;;
50165;SDS011;36071;48.140;11.516;2024-02-26T00:41:31;4.8;;;3.1;;
50165;SDS011;36071;48.140;11.516;2024-02-26T00:46:31;6.6;;;2.7;;
50165;SDS011;36071;48.140;11.516;2024-02-26T00:51:31;6.3;;;2.8;;
50165;SDS011;36071;48.140;11.516;2024-02-26T00:56:31;4.5;;;2.7;;
50165;SDS011;36071;48.140;11.516;2024-02-26T01:01:31;5.3;;;2.7;;
50165;SDS011;36071;48.140;11.516;2024-02-26T01:06:31;5.2;;;2.6;;
50165;SDS011;36071;48.140;11.516;2024-02-26T01:11:31;3.8;;;2.3;;
50165;SDS011;36071;48.140;11.516;2024-02-26T01:16:31;4.0;;;2.3;;
50165;SDS011;36071;48.140;11.516;2024-02-26T01:21:31;6.2;;;2.7;;
50165;SDS011;36071;48.140;11.516;2024-02-26T01:26:31;5.5;;;2.9;;
50165;SDS011;36071;48.140;11.516;2024-02-26T01:31:31;4.7;;;2.4;;
50165;SDS011;36071;48.140;11.516;2024-02-26T01:36:31;6.9;;;2.5;;
50165;SDS011;36071;48.140;11.516;2024-02-26T01:41:32;4.1;;;2.4;;
50165;SDS011;36071;48.140;11.516;2024-02-26T01:46:36;4.3;;;2.6;;
50165;SDS011;36071;48.140;11.516;2024-02-26T01:51:32;5.3;;;2.3;;
50165;SDS011;36071;48.140;11.516;2024-02-26T01:56:31;4.6;;;2.4;;
50165;SDS011;36071;48.140;11.516;2024-02-26T02:01:32;3.4;;;2.2;;
50165;SDS011;36071;48.140;11.516;2024-02-26T02:06:31;4.8;;;2.4;;
50165;SDS011;36071;48.140;11.516;2024-02-26T02:11:32;5.1;;;2.8;;
50165;SDS011;36071;48.140;11.516;2024-02-26T02:16:31;4.8;;;2.5;;
50165;SDS011;36071;48.140;11.516;2024-02-26T02:21:31;5.2;;;2.6;;
50165;SDS011;36071;48.140;11.516;2024-02-26T02:26:37;5.3;;;2.5;;
50165;SDS011;36071;48.140;11.516;2024-02-26T02:31:32;3.4;;;2.4;;
50165;SDS011;36071;48.140;11.516;2024-02-26T02:36:32;3.4;;;2.1;;
50165;SDS011;36071;48.140;11.516;2024-02-26T02:41:31;7.6;;;3.2;;
50165;SDS011;36071;48.140;11.516;2024-02-26T02:46:31;3.8;;;2.0;;
50165;SDS011;36071;48.140;11.516;2024-02-26T02:56:31;3.1;;;2.1;;
50165;SDS011;36071;48.140;11.516;2024-02-26T03:01:31;6.5;;;2.7;;
50165;SDS011;36071;48.140;11.516;2024-02-26T03:06:31;3.0;;;2.0;;
50165;SDS011;36071;48.140;11.516;2024-02-26T03:11:31;3.2;;;1.8;;
50165;SDS011;36071;48.140;11.516;2024-02-26T03:16:34;5.0;;;2.9;;
50165;SDS011;36071;48.140;11.516;2024-02-26T03:21:31;4.2;;;2.3;;
50165;SDS011;36071;48.140;11.516;2024-02-26T03:26:31;5.2;;;2.6;;
50165;SDS011;36071;48.140;11.516;2024-02-26T03:31:34;6.5;;;2.1;;
50165;SDS011;36071;48.140;11.516;2024-02-26T03:36:31;3.6;;;2.0;;
50165;SDS011;36071;48.140;11.516;2024-02-26T03:41:31;3.9;;;1.9;;
50165;SDS011;36071;48.140;11.516;2024-02-26T03:46:31;2.8;;;1.9;;
50165;SDS011;36071;48.140;11.516;2024-02-26T03:51:31;4.1;;;1.9;;
50165;SDS011;36071;48.140;11.516;2024-02-26T03:56:36;3.5;;;2.3;;
50165;SDS011;36071;48.140;11.516;2024-02-26T04:01:31;3.3;;;1.9;;
50165;SDS011;36071;48.140;11.516;2024-02-26T04:06:31;3.6;;;1.8;;
50165;SDS011;36071;48.140;11.516;2024-02-26T04:11:33;3.0;;;1.8;;
50165;SDS011;36071;48.140;11.516;2024-02-26T04:16:31;3.2;;;1.9;;
50165;SDS011;36071;48.140;11.516;2024-02-26T04:21:31;3.5;;;2.3;;
50165;SDS011;36071;48.140;11.516;2024-02-26T04:26:31;4.5;;;2.3;;
50165;SDS011;36071;48.140;11.516;2024-02-26T04:31:31;37.7;;;14.9;;
50165;SDS011;36071;48.140;11.516;2024-02-26T04:36:32;51.2;;;19.8;;
50165;SDS011;36071;48.140;11.516;2024-02-26T04:41:31;12.2;;;5.4;;
50165;SDS011;36071;48.140;11.516;2024-02-26T04:46:31;10.2;;;3.3;;
50165;SDS011;36071;48.140;11.516;2024-02-26T04:51:31;7.2;;;3.3;;
50165;SDS011;36071;48.140;11.516;2024-02-26T04:56:31;4.5;;;2.5;;
50165;SDS011;36071;48.140;11.516;2024-02-26T05:01:31;3.5;;;1.7;;
50165;SDS011;36071;48.140;11.516;2024-02-26T05:06:31;3.1;;;1.6;;
50165;SDS011;36071;48.140;11.516;2024-02-26T05:11:36;3.2;;;1.8;;
50165;SDS011;36071;48.140;11.516;2024-02-26T05:16:32;3.3;;;1.7;;
50165;SDS011;36071;48.140;11.516;2024-02-26T05:26:32;2.1;;;1.6;;
50165;SDS011;36071;48.140;11.516;2024-02-26T05:31:32;3.4;;;1.7;;
50165;SDS011;36071;48.140;11.516;2024-02-26T05:36:32;2.5;;;1.6;;
50165;SDS011;36071;48.140;11.516;2024-02-26T05:41:32;2.5;;;1.5;;
50165;SDS011;36071;48.140;11.516;2024-02-26T05:46:32;4.3;;;2.0;;
50165;SDS011;36071;48.140;11.516;2024-02-26T05:51:32;3.7;;;1.7;;
50165;SDS011;36071;48.140;11.516;2024-02-26T05:56:32;4.7;;;1.6;;
50165;SDS011;36071;48.140;11.516;2024-02-26T06:01:33;3.6;;;1.7;;
50165;SDS011;36071;48.140;11.516;2024-02-26T06:06:32;6.3;;;1.9;;
50165;SDS011;36071;48.140;11.516;2024-02-26T06:11:32;4.1;;;1.6;;
50165;SDS011;36071;48.140;11.516;2024-02-26T06:16:37;6.2;;;1.9;;
50165;SDS011;36071;48.140;11.516;2024-02-26T06:21:36;4.4;;;1.7;;
50165;SDS011;36071;48.140;11.516;2024-02-26T06:26:32;3.2;;;1.8;;
50165;SDS011;36071;48.140;11.516;2024-02-26T06:31:34;3.9;;;1.7;;
50165;SDS011;36071;48.140;11.516;2024-02-26T06:36:32;5.3;;;1.7;;
50165;SDS011;36071;48.140;11.516;2024-02-26T06:41:32;3.8;;;1.6;;
50165;SDS011;36071;48.140;11.516;2024-02-26T06:46:32;5.7;;;2.0;;
50165;SDS011;36071;48.140;11.516;2024-02-26T06:51:32;5.8;;;2.0;;
50165;SDS011;36071;48.140;11.516;2024-02-26T06:56:33;4.1;;;1.9;;
50165;SDS011;36071;48.140;11.516;2024-02-26T07:01:32;4.4;;;1.9;;
50165;SDS011;36071;48.140;11.516;2024-02-26T07:06:32;8.6;;;2.8;;
50165;SDS011;36071;48.140;11.516;2024-02-26T07:11:37;8.0;;;2.9;;
50165;SDS011;36071;48.140;11.516;2024-02-26T07:16:32;7.3;;;3.0;;
50165;SDS011;36071;48.140;11.516;2024-02-26T07:21:32;7.6;;;2.1;;
50165;SDS011;36071;48.140;11.516;2024-02-26T07:26:33;4.6;;;2.1;;
50165;SDS011;36071;48.140;11.516;2024-02-26T07:31:32;10.4;;;2.7;;
50165;SDS011;36071;48.140;11.516;2024-02-26T07:36:34;7.6;;;2.2;;
50165;SDS011;36071;48.140;11.516;2024-02-26T07:41:32;6.1;;;2.1;;
50165;SDS011;36071;48.140;11.516;2024-02-26T07:46:32;7.5;;;2.5;;
50165;SDS011;36071;48.140;11.516;2024-02-26T07:51:32;9.2;;;2.5;;
50165;SDS011;36071;48.140;11.516;2024-02-26T07:56:37;8.8;;;3.0;;
50165;SDS011;36071;48.140;11.516;2024-02-26T08:01:32;9.2;;;3.2;;
50165;SDS011;36071;48.140;11.516;2024-02-26T08:06:32;12.7;;;3.4;;
50165;SDS011;36071;48.140;11.516;2024-02-26T08:11:37;11.1;;;4.2;;
50165;SDS011;36071;48.140;11.516;2024-02-26T08:16:32;9.7;;;3.4;;
50165;SDS011;36071;48.140;11.516;2024-02-26T08:21:32;12.4;;;3.7;;
50165;SDS011;36071;48.140;11.516;2024-02-26T08:26:32;11.6;;;3.5;;
50165;SDS011;36071;48.140;11.516;2024-02-26T08:31:32;9.4;;;3.8;;
50165;SDS011;36071;48.140;11.516;2024-02-26T08:36:35;15.5;;;4.3;;
50165;SDS011;36071;48.140;11.516;2024-02-26T08:41:32;11.3;;;2.8;;
50165;SDS011;36071;48.140;11.516;2024-02-26T08:46:34;12.9;;;4.5;;
50165;SDS011;36071;48.140;11.516;2024-02-26T08:51:33;34.9;;;16.1;;
50165;SDS011;36071;48.140;11.516;2024-02-26T08:56:34;34.4;;;17.8;;
50165;SDS011;36071;48.140;11.516;2024-02-26T09:01:33;26.4;;;13.1;;
50165;SDS011;36071;48.140;11.516;2024-02-26T09:06:36;17.7;;;7.2;;
50165;SDS011;36071;48.140;11.516;2024-02-26T09:11:33;12.1;;;4.5;;
50165;SDS011;36071;48.140;11.516;2024-02-26T09:16:33;31.5;;;13.3;;
50165;SDS011;36071;48.140;11.516;2024-02-26T09:21:33;48.7;;;25.2;;
50165;SDS011;36071;48.140;11.516;2024-02-26T09:26:33;15.9;;;5.6;;
50165;SDS011;36071;48.140;11.516;2024-02-26T09:31:33;24.3;;;10.5;;
50165;SDS011;36071;48.140;11.516;2024-02-26T09:36:38;16.9;;;5.6;;
50165;SDS011;36071;48.140;11.516;2024-02-26T09:41:33;16.0;;;5.5;;
50165;SDS011;36071;48.140;11.516;2024-02-26T09:46:33;9.3;;;3.8;;
50165;SDS011;36071;48.140;11.516;2024-02-26T09:51:33;9.0;;;3.5;;
50165;SDS011;36071;48.140;11.516;2024-02-26T09:56:33;16.1;;;3.1;;
50165;SDS011;36071;48.140;11.516;2024-02-26T10:01:33;7.8;;;2.7;;
50165;SDS011;36071;48.140;11.516;2024-02-26T10:06:33;9.2;;;2.6;;
50165;SDS011;36071;48.140;11.516;2024-02-26T10:11:33;7.1;;;1.8;;
50165;SDS011;36071;48.140;11.516;2024-02-26T10:16:33;7.4;;;2.0;;
50165;SDS011;36071;48.140;11.516;2024-02-26T10:21:33;9.0;;;2.1;;
50165;SDS011;36071;48.140;11.516;2024-02-26T10:26:35;8.3;;;2.4;;
50165;SDS011;36071;48.140;11.516;2024-02-26T10:31:33;10.4;;;1.9;;
50165;SDS011;36071;48.140;11.516;2024-02-26T10:36:33;11.1;;;5.3;;
50165;SDS011;36071;48.140;11.516;2024-02-26T10:41:33;3.5;;;1.7;;
50165;SDS011;36071;48.140;11.516;2024-02-26T10:46:34;4.0;;;1.5;;
50165;SDS011;36071;48.140;11.516;2024-02-26T10:51:36;4.6;;;2.1;;
50165;SDS011;36071;48.140;11.516;2024-02-26T10:56:34;6.8;;;1.7;;
50165;SDS011;36071;48.140;11.516;2024-02-26T11:01:33;4.4;;;2.3;;
50165;SDS011;36071;48.140;11.516;2024-02-26T11:06:36;9.8;;;4.7;;
50165;SDS011;36071;48.140;11.516;2024-02-26T11:11:34;10.8;;;5.5;;
50165;SDS011;36071;48.140;11.516;2024-02-26T11:16:34;5.9;;;2.3;;
50165;SDS011;36071;48.140;11.516;2024-02-26T11:21:35;4.8;;;2.8;;
50165;SDS011;36071;48.140;11.516;2024-02-26T11:26:33;2.1;;;1.6;;
50165;SDS011;36071;48.140;11.516;2024-02-26T11:31:33;4.7;;;2.3;;
50165;SDS011;36071;48.140;11.516;2024-02-26T11:36:35;3.8;;;1.4;;
50165;SDS011;36071;48.140;11.516;2024-02-26T11:41:33;5.3;;;2.4;;
50165;SDS011;36071;48.140;11.516;2024-02-26T11:46:39;10.7;;;5.7;;
50165;SDS011;36071;48.140;11.516;2024-02-26T11:51:34;5.8;;;2.5;;
50165;SDS011;36071;48.140;11.516;2024-02-26T11:56:34;2.2;;;0.9;;
50165;SDS011;36071;48.140;11.516;2024-02-26T12:01:38;2.5;;;1.2;;
50165;SDS011;36071;48.140;11.516;2024-02-26T12:06:40;2.1;;;1.2;;
50165;SDS011;36071;48.140;11.516;2024-02-26T12:11:36;3.4;;;1.2;;
50165;SDS011;36071;48.140;11.516;2024-02-26T12:16:35;4.2;;;1.3;;
50165;SDS011;36071;48.140;11.516;2024-02-26T12:21:35;3.5;;;1.3;;
50165;SDS011;36071;48.140;11.516;2024-02-26T12:26:34;2.7;;;1.2;;
50165;SDS011;36071;48.140;11.516;2024-02-26T12:31:34;3.4;;;1.2;;
50165;SDS011;36071;48.140;11.516;2024-02-26T12:36:36;2.1;;;1.1;;
50165;SDS011;36071;48.140;11.516;2024-02-26T12:41:34;2.3;;;0.9;;
50165;SDS011;36071;48.140;11.516;2024-02-26T12:46:34;3.0;;;1.7;;
50165;SDS011;36071;48.140;11.516;2024-02-26T12:51:34;1.6;;;0.8;;
50165;SDS011;36071;48.140;11.516;2024-02-26T12:56:34;1.9;;;0.7;;
50165;SDS011;36071;48.140;11.516;2024-02-26T13:01:34;1.2;;;0.6;;
50165;SDS011;36071;48.140;11.516;2024-02-26T13:06:35;1.5;;;0.6;;
50165;SDS011;36071;48.140;11.516;2024-02-26T13:11:34;1.5;;;0.9;;
50165;SDS011;36071;48.140;11.516;2024-02-26T13:16:37;4.0;;;2.2;;
50165;SDS011;36071;48.140;11.516;2024-02-26T13:21:34;7.2;;;3.9;;
50165;SDS011;36071;48.140;11.516;2024-02-26T13:26:34;7.2;;;4.3;;
50165;SDS011;36071;48.140;11.516;2024-02-26T13:31:38;6.9;;;4.4;;
50165;SDS011;36071;48.140;11.516;2024-02-26T13:36:34;5.2;;;3.2;;
50165;SDS011;36071;48.140;11.516;2024-02-26T13:41:34;5.9;;;3.4;;
50165;SDS011;36071;48.140;11.516;2024-02-26T13:46:34;4.4;;;2.9;;
50165;SDS011;36071;48.140;11.516;2024-02-26T13:51:34;5.1;;;2.4;;
50165;SDS011;36071;48.140;11.516;2024-02-26T13:56:34;3.6;;;1.6;;
50165;SDS011;36071;48.140;11.516;2024-02-26T14:01:37;2.6;;;1.7;;
50165;SDS011;36071;48.140;11.516;2024-02-26T14:06:34;2.4;;;1.5;;
50165;SDS011;36071;48.140;11.516;2024-02-26T14:11:34;2.8;;;1.8;;
50165;SDS011;36071;48.140;11.516;2024-02-26T14:16:34;3.7;;;1.5;;
50165;SDS011;36071;48.140;11.516;2024-02-26T14:21:34;2.5;;;0.9;;
50165;SDS011;36071;48.140;11.516;2024-02-26T14:26:34;2.9;;;1.1;;
50165;SDS011;36071;48.140;11.516;2024-02-26T14:31:34;2.4;;;1.0;;
50165;SDS011;36071;48.140;11.516;2024-02-26T14:36:37;2.2;;;1.2;;
50165;SDS011;36071;48.140;11.516;2024-02-26T14:41:34;2.9;;;1.0;;
50165;SDS011;36071;48.140;11.516;2024-02-26T14:46:36;4.2;;;1.3;;
50165;SDS011;36071;48.140;11.516;2024-02-26T14:51:35;2.5;;;1.6;;
50165;SDS011;36071;48.140;11.516;2024-02-26T14:56:34;3.8;;;1.4;;
50165;SDS011;36071;48.140;11.516;2024-02-26T15:01:35;2.5;;;1.6;;
50165;SDS011;36071;48.140;11.516;2024-02-26T15:06:34;6.6;;;1.9;;
50165;SDS011;36071;48.140;11.516;2024-02-26T15:11:37;3.7;;;2.2;;
50165;SDS011;36071;48.140;11.516;2024-02-26T15:16:37;27.4;;;12.8;;
50165;SDS011;36071;48.140;11.516;2024-02-26T15:21:34;32.5;;;16.0;;
50165;SDS011;36071;48.140;11.516;2024-02-26T15:26:34;18.1;;;10.1;;
50165;SDS011;36071;48.140;11.516;2024-02-26T15:31:34;31.9;;;18.3;;
50165;SDS011;36071;48.140;11.516;2024-02-26T15:36:34;63.3;;;36.0;;
50165;SDS011;36071;48.140;11.516;2024-02-26T15:41:36;30.6;;;16.8;;
50165;SDS011;36071;48.140;11.516;2024-02-26T15:46:38;41.6;;;23.5;;
50165;SDS011;36071;48.140;11.516;2024-02-26T15:51:34;16.2;;;9.7;;
50165;SDS011;36071;48.140;11.516;2024-02-26T15:56:34;25.6;;;14.5;;
50165;SDS011;36071;48.140;11.516;2024-02-26T16:01:34;9.5;;;5.2;;
50165;SDS011;36071;48.140;11.516;2024-02-26T16:06:41;7.5;;;4.0;;
50165;SDS011;36071;48.140;11.516;2024-02-26T16:11:34;4.4;;;2.4;;
50165;SDS011;36071;48.140;11.516;2024-02-26T16:16:34;6.1;;;2.1;;
50165;SDS011;36071;48.140;11.516;2024-02-26T16:21:34;5.1;;;1.8;;
50165;SDS011;36071;48.140;11.516;2024-02-26T16:26:39;4.1;;;1.6;;
50165;SDS011;36071;48.140;11.516;2024-02-26T16:31:36;6.9;;;2.0;;
50165;SDS011;36071;48.140;11.516;2024-02-26T16:36:34;2.8;;;1.7;;
50165;SDS011;36071;48.140;11.516;2024-02-26T16:41:35;4.0;;;1.7;;
50165;SDS011;36071;48.140;11.516;2024-02-26T16:46:40;16.5;;;7.0;;
50165;SDS011;36071;48.140;11.516;2024-02-26T16:51:38;8.3;;;4.2;;
50165;SDS011;36071;48.140;11.516;2024-02-26T16:56:35;9.8;;;3.4;;
50165;SDS011;36071;48.140;11.516;2024-02-26T17:01:35;26.6;;;7.8;;
50165;SDS011;36071;48.140;11.516;2024-02-26T17:06:35;6.9;;;2.8;;
50165;SDS011;36071;48.140;11.516;2024-02-26T17:11:38;18.4;;;4.8;;
50165;SDS011;36071;48.140;11.516;2024-02-26T17:16:37;15.2;;;6.5;;
50165;SDS011;36071;48.140;11.516;2024-02-26T17:21:35;5.0;;;2.5;;
50165;SDS011;36071;48.140;11.516;2024-02-26T17:26:35;6.2;;;2.7;;
50165;SDS011;36071;48.140;11.516;2024-02-26T17:31:35;34.0;;;17.1;;
50165;SDS011;36071;48.140;11.516;2024-02-26T17:36:41;29.3;;;14.3;;
50165;SDS011;36071;48.140;11.516;2024-02-26T17:41:36;16.2;;;8.9;;
50165;SDS011;36071;48.140;11.516;2024-02-26T17:46:37;18.2;;;8.8;;
50165;SDS011;36071;48.140;11.516;2024-02-26T17:51:35;10.4;;;5.6;;
50165;SDS011;36071;48.140;11.516;2024-02-26T17:56:35;9.6;;;4.2;;
50165;SDS011;36071;48.140;11.516;2024-02-26T18:01:37;8.7;;;4.6;;
50165;SDS011;36071;48.140;11.516;2024-02-26T18:06:35;6.4;;;3.1;;
50165;SDS011;36071;48.140;11.516;2024-02-26T18:11:35;6.9;;;3.3;;
50165;SDS011;36071;48.140;11.516;2024-02-26T18:16:40;5.1;;;2.9;;
50165;SDS011;36071;48.140;11.516;2024-02-26T18:21:36;5.2;;;3.2;;
50165;SDS011;36071;48.140;11.516;2024-02-26T18:26:35;35.2;;;16.4;;
50165;SDS011;36071;48.140;11.516;2024-02-26T18:31:35;35.4;;;16.8;;
50165;SDS011;36071;48.140;11.516;2024-02-26T18:36:35;16.1;;;7.8;;
50165;SDS011;36071;48.140;11.516;2024-02-26T18:41:35;17.9;;;7.8;;
50165;SDS011;36071;48.140;11.516;2024-02-26T18:46:41;7.7;;;4.0;;
50165;SDS011;36071;48.140;11.516;2024-02-26T18:51:35;6.4;;;3.6;;
50165;SDS011;36071;48.140;11.516;2024-02-26T18:56:35;6.0;;;3.2;;
50165;SDS011;36071;48.140;11.516;2024-02-26T19:01:35;3.9;;;2.9;;
50165;SDS011;36071;48.140;11.516;2024-02-26T19:06:38;5.5;;;2.7;;
50165;SDS011;36071;48.140;11.516;2024-02-26T19:11:35;8.5;;;3.7;;
50165;SDS011;36071;48.140;11.516;2024-02-26T19:16:35;10.4;;;5.9;;
50165;SDS011;36071;48.140;11.516;2024-02-26T19:21:38;4.9;;;3.0;;
50165;SDS011;36071;48.140;11.516;2024-02-26T19:26:35;7.5;;;3.3;;
50165;SDS011;36071;48.140;11.516;2024-02-26T19:31:35;4.5;;;2.8;;
50165;SDS011;36071;48.140;11.516;2024-02-26T19:36:35;4.6;;;3.0;;
50165;SDS011;36071;48.140;11.516;2024-02-26T19:41:35;5.3;;;2.9;;
50165;SDS011;36071;48.140;11.516;2024-02-26T19:46:35;6.9;;;3.3;;
50165;SDS011;36071;48.140;11.516;2024-02-26T19:51:35;7.4;;;3.5;;
50165;SDS011;36071;48.140;11.516;2024-02-26T19:56:35;7.8;;;3.3;;
50165;SDS011;36071;48.140;11.516;2024-02-26T20:01:35;6.5;;;3.1;;
50165;SDS011;36071;48.140;11.516;2024-02-26T20:06:37;6.7;;;3.4;;
50165;SDS011;36071;48.140;11.516;2024-02-26T20:11:35;18.4;;;10.2;;
50165;SDS011;36071;48.140;11.516;2024-02-26T20:16:39;31.3;;;17.8;;
50165;SDS011;36071;48.140;11.516;2024-02-26T20:21:35;16.3;;;8.4;;
50165;SDS011;36071;48.140;11.516;2024-02-26T20:26:35;12.8;;;7.1;;
50165;SDS011;36071;48.140;11.516;2024-02-26T20:31:35;9.5;;;5.4;;
50165;SDS011;36071;48.140;11.516;2024-02-26T20:36:35;7.5;;;4.3;;
50165;SDS011;36071;48.140;11.516;2024-02-26T20:41:35;8.8;;;4.2;;
50165;SDS011;36071;48.140;11.516;2024-02-26T20:46:39;9.6;;;4.0;;
50165;SDS011;36071;48.140;11.516;2024-02-26T20:51:36;6.6;;;4.2;;
50165;SDS011;36071;48.140;11.516;2024-02-26T20:56:35;8.8;;;4.2;;
50165;SDS011;36071;48.140;11.516;2024-02-26T21:01:35;5.7;;;3.5;;
50165;SDS011;36071;48.140;11.516;2024-02-26T21:06:35;9.8;;;4.2;;
50165;SDS011;36071;48.140;11.516;2024-02-26T21:11:35;6.7;;;3.8;;
50165;SDS011;36071;48.140;11.516;2024-02-26T21:16:39;8.0;;;4.2;;
50165;SDS011;36071;48.140;11.516;2024-02-26T21:21:35;7.0;;;4.3;;
50165;SDS011;36071;48.140;11.516;2024-02-26T21:26:37;6.8;;;3.7;;
50165;SDS011;36071;48.140;11.516;2024-02-26T21:31:35;6.7;;;3.6;;
50165;SDS011;36071;48.140;11.516;2024-02-26T21:36:35;5.7;;;3.3;;
50165;SDS011;36071;48.140;11.516;2024-02-26T21:41:37;7.8;;;3.4;;
50165;SDS011;36071;48.140;11.516;2024-02-26T21:46:35;8.8;;;3.2;;
50165;SDS011;36071;48.140;11.516;2024-02-26T21:51:40;10.6;;;6.3;;
50165;SDS011;36071;48.140;11.516;2024-02-26T21:56:39;6.1;;;3.1;;
50165;SDS011;36071;48.140;11.516;2024-02-26T22:01:35;5.8;;;3.1;;
50165;SDS011;36071;48.140;11.516;2024-02-26T22:06:35;7.9;;;3.5;;
50165;SDS011;36071;48.140;11.516;2024-02-26T22:11:35;7.4;;;3.4;;
50165;SDS011;36071;48.140;11.516;2024-02-26T22:16:35;6.6;;;3.7;;
50165;SDS011;36071;48.140;11.516;2024-02-26T22:21:35;6.9;;;3.8;;
50165;SDS011;36071;48.140;11.516;2024-02-26T22:26:37;5.4;;;3.8;;
50165;SDS011;36071;48.140;11.516;2024-02-26T22:31:35;8.9;;;5.7;;
50165;SDS011;36071;48.140;11.516;2024-02-26T22:36:38;47.5;;;24.9;;
50165;SDS011;36071;48.140;11.516;2024-02-26T22:41:39;17.7;;;9.6;;
50165;SDS011;36071;48.140;11.516;2024-02-26T22:46:35;21.1;;;11.9;;
50165;SDS011;36071;48.140;11.516;2024-02-26T22:51:35;12.9;;;7.5;;
50165;SDS011;36071;48.140;11.516;2024-02-26T22:56:35;9.4;;;6.2;;
50165;SDS011;36071;48.140;11.516;2024-02-26T23:01:35;10.5;;;6.0;;
50165;SDS011;36071;48.140;11.516;2024-02-26T23:06:35;10.0;;;6.2;;
50165;SDS011;36071;48.140;11.516;2024-02-26T23:11:35;10.0;;;5.7;;
50165;SDS011;36071;48.140;11.516;2024-02-26T23:16:35;9.4;;;5.9;;
50165;SDS011;36071;48.140;11.516;2024-02-26T23:21:35;9.8;;;6.1;;
50165;SDS011;36071;48.140;11.516;2024-02-26T23:26:35;10.3;;;6.3;;
50165;SDS011;36071;48.140;11.516;2024-02-26T23:31:35;9.7;;;6.3;;
50165;SDS011;36071;48.140;11.516;2024-02-26T23:36:36;10.6;;;6.4;;
50165;SDS011;36071;48.140;11.516;2024-02-26T23:41:35;12.6;;;6.6;;
50165;SDS011;36071;48.140;11.516;2024-02-26T23:46:35;10.8;;;6.4;;
50165;SDS011;36071;48.140;11.516;2024-02-26T23:51:35;10.1;;;6.6;;
50165;SDS011;36071;48.140;11.516;2024-02-26T23:56:35;12.0;;;6.4;;
